createdAt,value
2018-11-25T00:00:31.847Z,74.6
2018-11-25T00:01:31.864Z,74.6
2018-11-25T00:02:32.148Z,74.79
2018-11-25T00:03:32.178Z,74.88
2018-11-25T00:04:31.922Z,74.98
2018-11-25T00:05:31.941Z,74.88
2018-11-25T00:06:32.235Z,74.88
2018-11-25T00:07:37.185Z,74.88
2018-11-25T00:08:31.997Z,74.79
2018-11-25T00:09:32.267Z,74.88
2018-11-25T00:10:32.299Z,74.79
2018-11-25T00:11:32.299Z,74.88
2018-11-25T00:12:32.317Z,74.79
2018-11-25T00:13:32.081Z,74.79
2018-11-25T00:14:32.100Z,75.17
2018-11-25T00:15:32.126Z,74.88
2018-11-25T00:16:32.396Z,74.88
2018-11-25T00:17:32.153Z,74.88
2018-11-25T00:18:32.173Z,74.69
2018-11-25T00:19:32.188Z,75.17
2018-11-25T00:20:32.466Z,74.98
2018-11-25T00:21:32.229Z,74.98
2018-11-25T00:22:32.246Z,75.17
2018-11-25T00:23:32.260Z,74.98
2018-11-25T00:24:32.536Z,74.79
2018-11-25T00:25:32.296Z,74.88
2018-11-25T00:26:32.582Z,74.69
2018-11-25T00:27:32.587Z,74.98
2018-11-25T00:28:32.358Z,75.26
2018-11-25T00:29:32.630Z,75.26
2018-11-25T00:30:32.661Z,75.17
2018-11-25T00:31:32.411Z,74.79
2018-11-25T00:32:32.431Z,74.88
2018-11-25T00:33:32.720Z,74.98
2018-11-25T00:34:32.457Z,75.17
2018-11-25T00:35:32.476Z,74.98
2018-11-25T00:36:32.503Z,75.26
2018-11-25T00:37:32.511Z,75.17
2018-11-25T00:38:32.804Z,75.07
2018-11-25T00:39:32.548Z,74.88
2018-11-25T00:40:32.566Z,74.79
2018-11-25T00:41:32.597Z,74.88
2018-11-25T00:42:32.880Z,74.98
2018-11-25T00:43:32.882Z,74.79
2018-11-25T00:44:32.640Z,74.6
2018-11-25T00:45:32.667Z,74.6
2018-11-25T00:46:32.937Z,74.69
2018-11-25T00:47:32.947Z,74.98
2018-11-25T00:48:32.980Z,74.6
2018-11-25T00:49:32.740Z,75.17
2018-11-25T00:50:32.749Z,75.17
2018-11-25T00:51:33.024Z,74.88
2018-11-25T00:52:32.789Z,74.98
2018-11-25T00:53:32.800Z,74.98
2018-11-25T00:54:33.083Z,75.17
2018-11-25T00:55:33.096Z,74.69
2018-11-25T00:56:33.115Z,75.17
2018-11-25T00:57:32.879Z,75.17
2018-11-25T00:58:32.901Z,74.88
2018-11-25T00:59:33.170Z,74.6
2018-11-25T01:00:33.184Z,74.98
2018-11-25T01:01:33.215Z,75.07
2018-11-25T01:02:32.964Z,74.79
2018-11-25T01:03:32.981Z,74.79
2018-11-25T01:04:33.268Z,74.88
2018-11-25T01:05:33.276Z,75.17
2018-11-25T01:06:33.296Z,74.98
2018-11-25T01:07:33.317Z,74.88
2018-11-25T01:08:33.071Z,74.88
2018-11-25T01:09:33.095Z,75.07
2018-11-25T01:10:33.120Z,74.88
2018-11-25T01:11:33.387Z,74.88
2018-11-25T01:12:33.404Z,75.07
2018-11-25T01:13:33.171Z,74.69
2018-11-25T01:14:33.194Z,74.69
2018-11-25T01:15:33.471Z,74.88
2018-11-25T01:16:33.483Z,74.88
2018-11-25T01:17:33.504Z,75.36
2018-11-25T01:18:33.515Z,74.88
2018-11-25T01:19:33.548Z,74.69
2018-11-25T01:20:33.295Z,74.88
2018-11-25T01:21:33.562Z,74.88
2018-11-25T01:22:33.590Z,74.98
2018-11-25T01:23:33.602Z,74.98
2018-11-25T01:24:33.621Z,74.98
2018-11-25T01:25:33.388Z,74.88
2018-11-25T01:26:33.415Z,75.45
2018-11-25T01:27:33.427Z,74.69
2018-11-25T01:28:33.696Z,75.26
2018-11-25T01:29:33.464Z,75.45
2018-11-25T01:30:33.473Z,74.98
2018-11-25T01:31:33.489Z,74.98
2018-11-25T01:32:33.520Z,74.98
2018-11-25T01:33:33.785Z,74.69
2018-11-25T01:34:33.800Z,74.88
2018-11-25T01:35:33.834Z,75.07
2018-11-25T01:36:33.582Z,74.98
2018-11-25T01:37:33.606Z,75.07
2018-11-25T01:38:33.621Z,75.07
2018-11-25T01:39:33.889Z,74.98
2018-11-25T01:40:33.651Z,74.88
2018-11-25T01:41:33.669Z,74.88
2018-11-25T01:42:33.963Z,74.98
2018-11-25T01:43:33.969Z,74.88
2018-11-25T01:44:33.994Z,74.88
2018-11-25T01:45:34.006Z,74.88
2018-11-25T01:46:33.762Z,74.88
2018-11-25T01:47:33.796Z,74.98
2018-11-25T01:48:33.798Z,74.69
2018-11-25T01:49:34.085Z,74.88
2018-11-25T01:50:34.093Z,74.88
2018-11-25T01:51:33.856Z,74.88
2018-11-25T01:52:33.874Z,75.45
2018-11-25T01:53:33.890Z,74.98
2018-11-25T01:54:34.171Z,75.84
2018-11-25T01:55:34.188Z,75.45
2018-11-25T01:56:34.199Z,75.36
2018-11-25T01:57:33.963Z,75.26
2018-11-25T01:58:33.986Z,75.84
2018-11-25T01:59:34.002Z,75.26
2018-11-25T02:00:34.277Z,75.26
2018-11-25T02:01:34.301Z,75.17
2018-11-25T02:02:34.053Z,75.45
2018-11-25T02:03:34.071Z,75.36
2018-11-25T02:04:34.359Z,75.36
2018-11-25T02:05:34.115Z,75.45
2018-11-25T02:06:34.402Z,75.26
2018-11-25T02:07:34.403Z,75.26
2018-11-25T02:08:34.214Z,75.45
2018-11-25T02:09:34.179Z,75.26
2018-11-25T02:10:34.191Z,75.26
2018-11-25T02:11:34.219Z,75.26
2018-11-25T02:12:34.492Z,75.26
2018-11-25T02:13:34.514Z,75.26
2018-11-25T02:14:34.530Z,75.26
2018-11-25T02:15:34.287Z,75.26
2018-11-25T02:16:34.560Z,75.26
2018-11-25T02:17:34.320Z,75.26
2018-11-25T02:18:34.599Z,75.26
2018-11-25T02:19:34.625Z,75.26
2018-11-25T02:20:34.657Z,75.17
2018-11-25T02:21:34.399Z,75.26
2018-11-25T02:22:34.424Z,75.17
2018-11-25T02:23:34.688Z,75.26
2018-11-25T02:24:34.447Z,75.17
2018-11-25T02:25:34.726Z,75.07
2018-11-25T02:26:34.739Z,75.26
2018-11-25T02:27:34.502Z,75.07
2018-11-25T02:28:34.791Z,75.17
2018-11-25T02:29:34.546Z,75.74
2018-11-25T02:30:34.565Z,75.17
2018-11-25T02:31:34.836Z,75.55
2018-11-25T02:32:34.853Z,75.74
2018-11-25T02:33:34.610Z,75.26
2018-11-25T02:34:34.898Z,75.07
2018-11-25T02:35:34.653Z,75.55
2018-11-25T02:36:34.670Z,75.74
2018-11-25T02:37:34.681Z,75.55
2018-11-25T02:38:34.961Z,75.64
2018-11-25T02:39:34.991Z,75.64
2018-11-25T02:40:34.740Z,75.55
2018-11-25T02:41:34.759Z,75.55
2018-11-25T02:42:34.776Z,75.64
2018-11-25T02:43:35.051Z,75.64
2018-11-25T02:44:35.070Z,75.64
2018-11-25T02:45:34.836Z,75.55
2018-11-25T02:46:34.847Z,75.45
2018-11-25T02:47:34.865Z,75.45
2018-11-25T02:48:34.884Z,75.45
2018-11-25T02:49:34.910Z,75.74
2018-11-25T02:50:35.189Z,75.26
2018-11-25T02:51:35.195Z,75.64
2018-11-25T02:52:35.219Z,75.55
2018-11-25T02:53:35.240Z,75.55
2018-11-25T02:54:34.991Z,75.55
2018-11-25T02:55:35.008Z,75.64
2018-11-25T02:56:35.027Z,75.55
2018-11-25T02:57:35.055Z,75.55
2018-11-25T02:58:35.333Z,75.45
2018-11-25T02:59:35.337Z,75.55
2018-11-25T03:00:35.103Z,75.45
2018-11-25T03:01:35.120Z,75.55
2018-11-25T03:02:35.143Z,75.55
2018-11-25T03:03:35.162Z,75.55
2018-11-25T03:04:35.177Z,75.45
2018-11-25T03:05:35.198Z,75.36
2018-11-25T03:06:35.489Z,75.26
2018-11-25T03:07:35.506Z,75.36
2018-11-25T03:08:35.248Z,75.45
2018-11-25T03:09:35.269Z,75.36
2018-11-25T03:10:35.296Z,75.26
2018-11-25T03:11:35.300Z,75.36
2018-11-25T03:12:35.583Z,75.45
2018-11-25T03:13:35.596Z,75.45
2018-11-25T03:14:35.654Z,75.45
2018-11-25T03:15:35.377Z,76.12
2018-11-25T03:16:35.391Z,76.12
2018-11-25T03:17:35.412Z,75.36
2018-11-25T03:18:35.705Z,75.45
2018-11-25T03:19:35.448Z,75.26
2018-11-25T03:20:35.467Z,75.93
2018-11-25T03:21:35.487Z,75.55
2018-11-25T03:22:35.759Z,75.36
2018-11-25T03:23:35.779Z,75.45
2018-11-25T03:24:35.800Z,75.55
2018-11-25T03:25:35.565Z,75.36
2018-11-25T03:26:35.578Z,75.45
2018-11-25T03:27:35.589Z,75.64
2018-11-25T03:28:35.882Z,75.45
2018-11-25T03:29:35.640Z,75.36
2018-11-25T03:30:35.647Z,75.55
2018-11-25T03:31:35.932Z,75.26
2018-11-25T03:32:35.936Z,75.26
2018-11-25T03:33:35.705Z,75.36
2018-11-25T03:34:35.978Z,75.49
2018-11-25T03:35:36.008Z,75.36
2018-11-25T03:36:36.017Z,75.36
2018-11-25T03:37:36.034Z,75.36
2018-11-25T03:38:35.842Z,75.36
2018-11-25T03:39:35.809Z,75.55
2018-11-25T03:40:36.088Z,75.59
2018-11-25T03:41:35.855Z,75.59
2018-11-25T03:42:35.861Z,75.55
2018-11-25T03:43:35.881Z,75.36
2018-11-25T03:44:35.902Z,75.55
2018-11-25T03:45:35.926Z,75.45
2018-11-25T03:46:35.944Z,75.4
2018-11-25T03:47:36.223Z,75.55
2018-11-25T03:48:36.231Z,75.55
2018-11-25T03:49:35.999Z,75.55
2018-11-25T03:50:36.273Z,75.55
2018-11-25T03:51:36.027Z,75.55
2018-11-25T03:52:36.057Z,75.59
2018-11-25T03:53:36.068Z,75.4
2018-11-25T03:54:36.095Z,75.74
2018-11-25T03:55:36.111Z,75.64
2018-11-25T03:56:36.382Z,75.64
2018-11-25T03:57:36.135Z,75.64
2018-11-25T03:58:36.162Z,75.45
2018-11-25T03:59:36.437Z,75.64
2018-11-25T04:00:36.199Z,75.64
2018-11-25T04:01:36.480Z,75.55
2018-11-25T04:02:36.302Z,75.45
2018-11-25T04:03:36.243Z,75.55
2018-11-25T04:04:36.263Z,75.45
2018-11-25T04:05:36.552Z,75.55
2018-11-25T04:06:36.301Z,75.55
2018-11-25T04:07:36.319Z,75.55
2018-11-25T04:08:36.343Z,75.64
2018-11-25T04:09:36.611Z,75.36
2018-11-25T04:10:36.633Z,75.55
2018-11-25T04:11:36.656Z,76.03
2018-11-25T04:12:36.670Z,75.45
2018-11-25T04:13:36.697Z,75.93
2018-11-25T04:14:36.705Z,75.36
2018-11-25T04:15:36.464Z,75.26
2018-11-25T04:16:36.486Z,75.45
2018-11-25T04:17:36.505Z,75.55
2018-11-25T04:18:36.572Z,75.45
2018-11-25T04:19:36.542Z,75.45
2018-11-25T04:20:36.559Z,75.26
2018-11-25T04:21:36.577Z,75.93
2018-11-25T04:22:36.593Z,75.93
2018-11-25T04:23:36.874Z,75.36
2018-11-25T04:24:36.881Z,75.93
2018-11-25T04:25:36.906Z,75.93
2018-11-25T04:26:36.936Z,75.93
2018-11-25T04:27:36.684Z,75.93
2018-11-25T04:28:36.962Z,75.17
2018-11-25T04:29:36.715Z,75.36
2018-11-25T04:30:36.734Z,75.45
2018-11-25T04:31:36.763Z,76.03
2018-11-25T04:32:36.781Z,75.45
2018-11-25T04:33:36.787Z,75.93
2018-11-25T04:34:37.074Z,75.45
2018-11-25T04:35:36.832Z,75.45
2018-11-25T04:36:37.104Z,76.03
2018-11-25T04:37:36.873Z,75.93
2018-11-25T04:38:37.144Z,75.93
2018-11-25T04:39:37.166Z,75.93
2018-11-25T04:40:37.187Z,76.03
2018-11-25T04:41:37.198Z,76.03
2018-11-25T04:42:36.964Z,76.03
2018-11-25T04:43:36.973Z,75.93
2018-11-25T04:44:36.993Z,76.12
2018-11-25T04:45:37.025Z,76.03
2018-11-25T04:46:37.036Z,76.03
2018-11-25T04:47:37.304Z,76.03
2018-11-25T04:48:37.074Z,76.03
2018-11-25T04:49:37.086Z,75.93
2018-11-25T04:50:37.369Z,76.03
2018-11-25T04:51:37.381Z,76.12
2018-11-25T04:52:37.142Z,76.12
2018-11-25T04:53:37.415Z,75.93
2018-11-25T04:54:37.177Z,75.93
2018-11-25T04:55:37.197Z,75.93
2018-11-25T04:56:37.209Z,75.93
2018-11-25T04:57:37.490Z,75.74
2018-11-25T04:58:37.260Z,75.74
2018-11-25T04:59:37.521Z,75.93
2018-11-25T05:00:37.282Z,75.93
2018-11-25T05:01:37.562Z,75.84
2018-11-25T05:02:37.324Z,75.84
2018-11-25T05:03:37.337Z,75.64
2018-11-25T05:04:37.352Z,75.64
2018-11-25T05:05:37.652Z,75.64
2018-11-25T05:06:37.403Z,75.64
2018-11-25T05:07:37.421Z,75.74
2018-11-25T05:08:37.700Z,75.74
2018-11-25T05:09:37.707Z,75.93
2018-11-25T05:10:37.472Z,75.93
2018-11-25T05:11:37.750Z,75.93
2018-11-25T05:12:37.768Z,75.93
2018-11-25T05:13:37.789Z,76.03
2018-11-25T05:14:37.535Z,76.03
2018-11-25T05:15:37.553Z,76.12
2018-11-25T05:16:37.573Z,76.12
2018-11-25T05:17:37.848Z,76.03
2018-11-25T05:18:37.605Z,76.12
2018-11-25T05:19:37.630Z,76.12
2018-11-25T05:20:37.662Z,76.12
2018-11-25T05:21:37.933Z,76.12
2018-11-25T05:22:37.680Z,75.93
2018-11-25T05:23:37.697Z,76.12
2018-11-25T05:24:37.722Z,76.03
2018-11-25T05:25:37.737Z,76.03
2018-11-25T05:26:37.755Z,76.12
2018-11-25T05:27:38.036Z,76.03
2018-11-25T05:28:38.064Z,76.12
2018-11-25T05:29:38.069Z,76.21
2018-11-25T05:30:38.086Z,76.12
2018-11-25T05:31:38.117Z,75.93
2018-11-25T05:32:37.859Z,75.84
2018-11-25T05:33:37.881Z,75.84
2018-11-25T05:34:37.905Z,76.03
2018-11-25T05:35:37.922Z,76.4
2018-11-25T05:36:38.193Z,76.03
2018-11-25T05:37:38.215Z,76.03
2018-11-25T05:38:38.230Z,75.93
2018-11-25T05:39:38.251Z,76.31
2018-11-25T05:40:38.008Z,76.12
2018-11-25T05:41:38.032Z,76.12
2018-11-25T05:42:38.312Z,76.31
2018-11-25T05:43:38.060Z,76.12
2018-11-25T05:44:38.088Z,76.31
2018-11-25T05:45:38.358Z,76.31
2018-11-25T05:46:38.378Z,76.12
2018-11-25T05:47:38.135Z,76.12
2018-11-25T05:48:38.155Z,76.12
2018-11-25T05:49:39.041Z,76.31
2018-11-25T05:50:38.191Z,76.21
2018-11-25T05:51:38.208Z,76.31
2018-11-25T05:52:38.238Z,76.21
2018-11-25T05:53:38.252Z,76.31
2018-11-25T05:54:38.268Z,76.12
2018-11-25T05:55:38.542Z,76.31
2018-11-25T05:56:38.303Z,76.12
2018-11-25T05:57:38.317Z,76.21
2018-11-25T05:58:38.335Z,76.31
2018-11-25T05:59:38.610Z,76.12
2018-11-25T06:00:38.375Z,76.31
2018-11-25T06:01:38.645Z,76.31
2018-11-25T06:02:38.675Z,76.12
2018-11-25T06:03:38.681Z,76.31
2018-11-25T06:04:38.447Z,76.31
2018-11-25T06:05:38.467Z,76.21
2018-11-25T06:06:38.483Z,76.12
2018-11-25T06:07:38.756Z,76.03
2018-11-25T06:08:38.774Z,76.03
2018-11-25T06:09:38.794Z,76.12
2018-11-25T06:10:38.551Z,76.21
2018-11-25T06:11:38.569Z,76.03
2018-11-25T06:12:38.586Z,76.12
2018-11-25T06:13:38.606Z,76.59
2018-11-25T06:14:38.633Z,76.5
2018-11-25T06:15:38.907Z,76.5
2018-11-25T06:16:38.672Z,76.12
2018-11-25T06:17:38.677Z,76.5
2018-11-25T06:18:38.709Z,76.5
2018-11-25T06:19:38.985Z,76.21
2018-11-25T06:20:38.735Z,76.59
2018-11-25T06:21:39.020Z,76.59
2018-11-25T06:22:38.769Z,76.5
2018-11-25T06:23:39.050Z,76.59
2018-11-25T06:24:38.816Z,76.69
2018-11-25T06:25:38.867Z,76.21
2018-11-25T06:26:39.113Z,76.4
2018-11-25T06:27:40.894Z,76.5
2018-11-25T06:28:38.883Z,76.12
2018-11-25T06:29:39.157Z,76.69
2018-11-25T06:30:38.925Z,76.69
2018-11-25T06:31:38.935Z,76.12
2018-11-25T06:32:38.957Z,76.21
2018-11-25T06:33:39.230Z,76.12
2018-11-25T06:34:38.993Z,76.59
2018-11-25T06:35:39.275Z,75.93
2018-11-25T06:36:39.292Z,76.5
2018-11-25T06:37:39.315Z,76.03
2018-11-25T06:38:39.067Z,76.12
2018-11-25T06:39:39.080Z,76.12
2018-11-25T06:40:39.097Z,76.12
2018-11-25T06:41:39.119Z,76.12
2018-11-25T06:42:39.141Z,76.12
2018-11-25T06:43:39.409Z,76.12
2018-11-25T06:44:39.174Z,76.03
2018-11-25T06:45:39.457Z,76.03
2018-11-25T06:46:39.466Z,76.12
2018-11-25T06:47:39.226Z,76.21
2018-11-25T06:48:39.246Z,76.5
2018-11-25T06:49:39.266Z,76.4
2018-11-25T06:50:39.282Z,76.4
2018-11-25T06:51:39.558Z,76.5
2018-11-25T06:52:39.321Z,76.69
2018-11-25T06:53:39.601Z,76.5
2018-11-25T06:54:39.609Z,76.4
2018-11-25T06:55:39.375Z,76.5
2018-11-25T06:56:39.662Z,76.4
2018-11-25T06:57:39.673Z,76.5
2018-11-25T06:58:39.698Z,76.4
2018-11-25T06:59:39.448Z,76.31
2018-11-25T07:00:39.461Z,76.5
2018-11-25T07:01:39.484Z,76.69
2018-11-25T07:02:39.497Z,76.4
2018-11-25T07:03:39.515Z,76.4
2018-11-25T07:04:39.795Z,76.4
2018-11-25T07:05:39.820Z,76.5
2018-11-25T07:06:39.571Z,76.4
2018-11-25T07:07:39.588Z,76.4
2018-11-25T07:08:39.868Z,76.4
2018-11-25T07:09:39.629Z,76.5
2018-11-25T07:10:39.909Z,76.59
2018-11-25T07:11:39.666Z,76.12
2018-11-25T07:12:39.948Z,76.69
2018-11-25T07:13:39.697Z,76.4
2018-11-25T07:14:39.712Z,76.4
2018-11-25T07:15:40.010Z,76.4
2018-11-25T07:16:39.765Z,76.5
2018-11-25T07:17:39.777Z,76.31
2018-11-25T07:18:40.045Z,76.59
2018-11-25T07:19:40.062Z,76.31
2018-11-25T07:20:40.088Z,76.31
2018-11-25T07:21:39.844Z,76.59
2018-11-25T07:22:40.130Z,76.59
2018-11-25T07:23:39.921Z,76.12
2018-11-25T07:24:39.895Z,76.4
2018-11-25T07:25:39.918Z,76.4
2018-11-25T07:26:39.937Z,76.59
2018-11-25T07:27:40.209Z,76.59
2018-11-25T07:28:40.230Z,76.59
2018-11-25T07:29:40.246Z,76.69
2018-11-25T07:30:40.262Z,76.4
2018-11-25T07:31:40.026Z,76.4
2018-11-25T07:32:40.311Z,76.12
2018-11-25T07:33:40.064Z,76.59
2018-11-25T07:34:40.081Z,76.5
2018-11-25T07:35:40.097Z,76.5
2018-11-25T07:36:40.113Z,76.59
2018-11-25T07:37:40.160Z,76.31
2018-11-25T07:38:40.408Z,76.31
2018-11-25T07:39:40.181Z,76.4
2018-11-25T07:40:40.445Z,76.59
2018-11-25T07:41:40.475Z,76.4
2018-11-25T07:42:40.495Z,76.31
2018-11-25T07:43:40.245Z,76.4
2018-11-25T07:44:40.266Z,76.4
2018-11-25T07:45:40.275Z,76.31
2018-11-25T07:46:40.308Z,76.4
2018-11-25T07:47:40.570Z,76.31
2018-11-25T07:48:40.332Z,76.5
2018-11-25T07:49:40.620Z,76.5
2018-11-25T07:50:40.628Z,76.31
2018-11-25T07:51:40.645Z,76.4
2018-11-25T07:52:40.674Z,76.4
2018-11-25T07:53:40.696Z,76.31
2018-11-25T07:54:40.452Z,76.59
2018-11-25T07:55:40.466Z,76.31
2018-11-25T07:56:40.482Z,76.31
2018-11-25T07:57:40.508Z,76.31
2018-11-25T07:58:40.515Z,76.4
2018-11-25T07:59:40.789Z,76.4
2018-11-25T08:00:40.812Z,76.31
2018-11-25T08:01:40.621Z,76.31
2018-11-25T08:02:44.164Z,76.4
2018-11-25T08:03:40.865Z,76.31
2018-11-25T08:04:40.894Z,76.31
2018-11-25T08:05:40.909Z,76.4
2018-11-25T08:06:40.672Z,76.4
2018-11-25T08:07:40.680Z,76.31
2018-11-25T08:08:40.705Z,76.5
2018-11-25T08:09:40.725Z,76.31
2018-11-25T08:10:40.995Z,76.31
2018-11-25T08:11:41.006Z,76.31
2018-11-25T08:12:41.042Z,76.31
2018-11-25T08:13:40.786Z,76.31
2018-11-25T08:14:40.809Z,76.59
2018-11-25T08:15:40.823Z,76.59
2018-11-25T08:16:41.123Z,76.31
2018-11-25T08:17:40.865Z,76.5
2018-11-25T08:18:40.886Z,76.31
2018-11-25T08:19:41.155Z,75.93
2018-11-25T08:20:40.930Z,76.12
2018-11-25T08:21:41.190Z,76.03
2018-11-25T08:22:41.219Z,76.03
2018-11-25T08:23:40.974Z,76.21
2018-11-25T08:24:40.990Z,76.12
2018-11-25T08:25:41.012Z,76.21
2018-11-25T08:26:41.028Z,76.31
2018-11-25T08:27:41.303Z,76.12
2018-11-25T08:28:41.065Z,76.31
2018-11-25T08:29:41.345Z,76.31
2018-11-25T08:30:41.355Z,76.12
2018-11-25T08:31:41.375Z,76.12
2018-11-25T08:32:41.146Z,76.12
2018-11-25T08:33:41.206Z,75.93
2018-11-25T08:34:41.172Z,76.03
2018-11-25T08:35:41.189Z,76.4
2018-11-25T08:36:41.207Z,76.31
2018-11-25T08:37:41.482Z,75.93
2018-11-25T08:38:41.503Z,76.21
2018-11-25T08:39:41.524Z,76.03
2018-11-25T08:40:41.281Z,76.03
2018-11-25T08:41:41.301Z,76.4
2018-11-25T08:42:41.327Z,76.03
2018-11-25T08:43:41.331Z,75.93
2018-11-25T08:44:41.355Z,75.84
2018-11-25T08:45:41.628Z,76.03
2018-11-25T08:46:41.657Z,76.31
2018-11-25T08:47:41.666Z,75.84
2018-11-25T08:48:41.434Z,76.21
2018-11-25T08:49:41.455Z,76.12
2018-11-25T08:50:41.720Z,76.12
2018-11-25T08:51:41.849Z,76.03
2018-11-25T08:52:41.754Z,75.93
2018-11-25T08:53:41.774Z,75.74
2018-11-25T08:54:41.531Z,75.96
2018-11-25T08:55:41.554Z,75.64
2018-11-25T08:56:41.575Z,75.78
2018-11-25T08:57:41.583Z,75.84
2018-11-25T08:58:41.861Z,75.74
2018-11-25T08:59:41.882Z,75.87
2018-11-25T09:00:41.898Z,75.93
2018-11-25T09:01:41.918Z,76.16
2018-11-25T09:02:41.934Z,75.96
2018-11-25T09:03:41.707Z,75.93
2018-11-25T09:04:41.718Z,75.96
2018-11-25T09:05:41.736Z,75.96
2018-11-25T09:06:41.752Z,75.96
2018-11-25T09:07:41.788Z,75.96
2018-11-25T09:08:41.813Z,76.06
2018-11-25T09:09:41.829Z,75.4
2018-11-25T09:10:42.086Z,75.4
2018-11-25T09:11:42.115Z,75.49
2018-11-25T09:12:42.132Z,75.4
2018-11-25T09:13:41.877Z,75.4
2018-11-25T09:14:42.155Z,75.4
2018-11-25T09:15:41.920Z,75.3
2018-11-25T09:16:41.937Z,75.49
2018-11-25T09:17:41.962Z,75.59
2018-11-25T09:18:41.970Z,75.68
2018-11-25T09:19:41.988Z,75.59
2018-11-25T09:20:42.279Z,75.49
2018-11-25T09:21:42.029Z,75.68
2018-11-25T09:22:42.305Z,75.3
2018-11-25T09:23:42.324Z,75.3
2018-11-25T09:24:42.346Z,75.21
2018-11-25T09:25:42.103Z,75.3
2018-11-25T09:26:42.113Z,75.68
2018-11-25T09:27:42.400Z,75.02
2018-11-25T09:28:42.161Z,74.92
2018-11-25T09:29:42.169Z,75.3
2018-11-25T09:30:42.203Z,74.73
2018-11-25T09:31:42.476Z,74.73
2018-11-25T09:32:42.225Z,74.82
2018-11-25T09:33:42.503Z,74.63
2018-11-25T09:34:42.324Z,73.88
2018-11-25T09:35:42.559Z,74.26
2018-11-25T09:36:42.301Z,74.29
2018-11-25T09:37:42.321Z,74.48
2018-11-25T09:38:42.342Z,74.2
2018-11-25T09:39:42.350Z,74.29
2018-11-25T09:40:42.371Z,73.72
2018-11-25T09:41:42.391Z,73.72
2018-11-25T09:42:42.405Z,73.53
2018-11-25T09:43:42.425Z,73.34
2018-11-25T09:44:42.442Z,73.44
2018-11-25T09:45:42.466Z,73.15
2018-11-25T09:46:45.174Z,73.34
2018-11-25T09:47:42.755Z,73.15
2018-11-25T09:48:42.525Z,73.53
2018-11-25T09:49:42.543Z,73.15
2018-11-25T09:50:42.559Z,73.15
2018-11-25T09:51:42.573Z,73.15
2018-11-25T09:52:42.591Z,73.25
2018-11-25T09:53:42.610Z,72.58
2018-11-25T09:54:42.626Z,72.58
2018-11-25T09:55:42.907Z,72.39
2018-11-25T09:56:42.941Z,72.39
2018-11-25T09:57:42.942Z,72.39
2018-11-25T09:58:42.706Z,72.58
2018-11-25T09:59:42.722Z,72.58
2018-11-25T10:00:42.741Z,72.58
2018-11-25T10:01:43.031Z,72.67
2018-11-25T10:02:43.038Z,72.86
2018-11-25T10:03:42.790Z,73.15
2018-11-25T10:04:43.072Z,73.15
2018-11-25T10:05:43.096Z,73.06
2018-11-25T10:06:42.848Z,73.06
2018-11-25T10:07:43.126Z,73.34
2018-11-25T10:08:42.900Z,73.06
2018-11-25T10:09:42.905Z,73.25
2018-11-25T10:10:42.933Z,73.25
2018-11-25T10:11:42.947Z,73.25
2018-11-25T10:12:42.960Z,73.53
2018-11-25T10:13:43.236Z,73.25
2018-11-25T10:14:43.257Z,73.15
2018-11-25T10:15:43.270Z,73.25
2018-11-25T10:16:43.040Z,73.25
2018-11-25T10:17:43.057Z,73.34
2018-11-25T10:18:43.074Z,73.34
2018-11-25T10:19:43.361Z,72.96
2018-11-25T10:20:43.367Z,73.15
2018-11-25T10:21:43.383Z,73.06
2018-11-25T10:22:43.144Z,72.96
2018-11-25T10:23:43.178Z,73.15
2018-11-25T10:24:43.439Z,73.25
2018-11-25T10:25:43.461Z,73.25
2018-11-25T10:26:43.479Z,73.25
2018-11-25T10:27:43.246Z,73.06
2018-11-25T10:28:43.259Z,73.34
2018-11-25T10:29:43.274Z,73.25
2018-11-25T10:30:43.552Z,73.25
2018-11-25T10:31:43.567Z,73.25
2018-11-25T10:32:44.630Z,73.15
2018-11-25T10:33:43.346Z,73.15
2018-11-25T10:34:43.622Z,73.25
2018-11-25T10:35:43.641Z,73.25
2018-11-25T10:36:43.679Z,73.15
2018-11-25T10:37:43.679Z,73.15
2018-11-25T10:38:43.451Z,73.25
2018-11-25T10:39:43.722Z,73.25
2018-11-25T10:40:43.732Z,73.25
2018-11-25T10:41:43.753Z,73.06
2018-11-25T10:42:43.509Z,73.25
2018-11-25T10:43:43.531Z,73.15
2018-11-25T10:44:43.807Z,73.34
2018-11-25T10:45:43.567Z,72.96
2018-11-25T10:46:43.591Z,73.34
2018-11-25T10:47:43.869Z,73.34
2018-11-25T10:48:43.887Z,73.34
2018-11-25T10:49:43.656Z,73.25
2018-11-25T10:50:43.672Z,73.53
2018-11-25T10:51:44.000Z,73.25
2018-11-25T10:52:43.959Z,73.15
2018-11-25T10:53:43.719Z,73.34
2018-11-25T10:54:43.734Z,73.34
2018-11-25T10:55:44.016Z,73.25
2018-11-25T10:56:44.031Z,73.25
2018-11-25T10:57:43.801Z,73.25
2018-11-25T10:58:43.810Z,73.25
2018-11-25T10:59:43.839Z,73.25
2018-11-25T11:00:43.850Z,73.25
2018-11-25T11:01:43.917Z,73.06
2018-11-25T11:02:44.142Z,73.06
2018-11-25T11:03:43.903Z,73.15
2018-11-25T11:04:43.923Z,73.28
2018-11-25T11:05:44.255Z,72.9
2018-11-25T11:06:43.958Z,72.62
2018-11-25T11:07:44.251Z,72.62
2018-11-25T11:08:44.268Z,72.71
2018-11-25T11:09:44.273Z,72.62
2018-11-25T11:10:44.033Z,72.24
2018-11-25T11:11:44.322Z,72.24
2018-11-25T11:12:44.070Z,71.86
2018-11-25T11:13:44.345Z,72.05
2018-11-25T11:14:44.426Z,72.24
2018-11-25T11:15:44.383Z,72.24
2018-11-25T11:16:44.417Z,72.33
2018-11-25T11:17:44.174Z,72.42
2018-11-25T11:18:44.182Z,72.52
2018-11-25T11:19:44.468Z,72.24
2018-11-25T11:20:44.220Z,72.33
2018-11-25T11:21:44.248Z,72.14
2018-11-25T11:22:44.260Z,72.52
2018-11-25T11:23:44.529Z,72.14
2018-11-25T11:24:44.559Z,72.42
2018-11-25T11:25:44.325Z,72.52
2018-11-25T11:26:44.336Z,72.33
2018-11-25T11:27:44.613Z,72.42
2018-11-25T11:28:44.374Z,72.05
2018-11-25T11:29:44.389Z,72.05
2018-11-25T11:30:44.666Z,72.14
2018-11-25T11:31:44.425Z,72.05
2018-11-25T11:32:44.718Z,72.24
2018-11-25T11:33:44.469Z,72.14
2018-11-25T11:34:44.477Z,72.24
2018-11-25T11:35:44.506Z,72.9
2018-11-25T11:36:44.519Z,72.52
2018-11-25T11:37:44.533Z,72.71
2018-11-25T11:38:44.822Z,73.06
2018-11-25T11:39:44.581Z,73.25
2018-11-25T11:40:44.590Z,73.15
2018-11-25T11:41:44.865Z,73.15
2018-11-25T11:42:44.632Z,73.06
2018-11-25T11:43:44.918Z,73.25
2018-11-25T11:44:44.666Z,73.15
2018-11-25T11:45:44.688Z,73.1
2018-11-25T11:46:44.964Z,73.34
2018-11-25T11:47:44.982Z,73.44
2018-11-25T11:48:44.742Z,73.34
2018-11-25T11:49:45.022Z,73.34
2018-11-25T11:50:44.780Z,73.25
2018-11-25T11:51:44.795Z,73.15
2018-11-25T11:52:45.074Z,73.15
2018-11-25T11:53:44.835Z,73.44
2018-11-25T11:54:45.114Z,73.63
2018-11-25T11:55:45.133Z,73.82
2018-11-25T11:56:44.889Z,73.44
2018-11-25T11:57:45.184Z,73.63
2018-11-25T11:58:44.932Z,74.1
2018-11-25T11:59:44.945Z,74.01
2018-11-25T12:00:44.977Z,73.82
2018-11-25T12:01:44.982Z,73.72
2018-11-25T12:02:45.000Z,74.1
2018-11-25T12:03:45.277Z,74.2
2018-11-25T12:04:45.045Z,73.91
2018-11-25T12:05:45.334Z,74.1
2018-11-25T12:06:45.084Z,74.48
2018-11-25T12:07:45.354Z,74.2
2018-11-25T12:08:45.113Z,73.72
2018-11-25T12:09:45.391Z,74.2
2018-11-25T12:10:45.406Z,74.58
2018-11-25T12:11:45.169Z,74.48
2018-11-25T12:12:45.458Z,74.48
2018-11-25T12:13:45.467Z,74.29
2018-11-25T12:14:45.230Z,74.48
2018-11-25T12:15:45.244Z,74.29
2018-11-25T12:16:45.517Z,74.1
2018-11-25T12:17:45.279Z,74.39
2018-11-25T12:18:45.573Z,74.2
2018-11-25T12:19:45.583Z,74.29
2018-11-25T12:20:45.596Z,74.29
2018-11-25T12:21:45.362Z,74.1
2018-11-25T12:22:45.371Z,73.91
2018-11-25T12:23:45.657Z,74.1
2018-11-25T12:24:45.411Z,74.29
2018-11-25T12:25:45.427Z,74.29
2018-11-25T12:26:45.450Z,74.1
2018-11-25T12:27:45.474Z,74.2
2018-11-25T12:28:45.743Z,74.67
2018-11-25T12:29:45.761Z,74.77
2018-11-25T12:30:45.526Z,74.67
2018-11-25T12:31:45.811Z,74.58
2018-11-25T12:32:45.820Z,74.58
2018-11-25T12:33:45.581Z,74.96
2018-11-25T12:34:45.595Z,74.67
2018-11-25T12:35:45.626Z,74.77
2018-11-25T12:36:45.901Z,74.67
2018-11-25T12:37:45.665Z,74.48
2018-11-25T12:38:45.678Z,74.96
2018-11-25T12:39:45.945Z,75.05
2018-11-25T12:40:45.712Z,75.34
2018-11-25T12:41:45.981Z,75.24
2018-11-25T12:42:45.746Z,75.15
2018-11-25T12:43:46.016Z,74.77
2018-11-25T12:44:46.043Z,74.96
2018-11-25T12:45:45.798Z,74.96
2018-11-25T12:46:45.816Z,74.77
2018-11-25T12:47:45.838Z,75.05
2018-11-25T12:48:45.857Z,74.96
2018-11-25T12:49:45.873Z,75.05
2018-11-25T12:50:46.156Z,75.62
2018-11-25T12:51:45.911Z,75.53
2018-11-25T12:52:46.189Z,75.72
2018-11-25T12:53:45.945Z,75.72
2018-11-25T12:54:45.973Z,75.72
2018-11-25T12:55:45.990Z,75.72